Time;durP1;ratioP1;P1;durP2;ratioP2;P2;SDS_P1;SDS_P2;PMS_P1;PMS_P2;Temp;Humidity;BMP_temperature;BMP_pressure;BME280_temperature;BME280_humidity;BME280_pressure;Samples;Min_cycle;Max_cycle;Signal;HPM_P1;HPM_P2
2021/05/04 00:02:17;;;;;;;5.33;4.30;;;;;;;12.92;36.13;99319.25;5082421;28;20479;-66
2021/05/04 00:04:43;;;;;;;4.50;3.97;;;;;;;13.41;35.72;99301.09;5081077;28;20484;-65
2021/05/04 00:07:09;;;;;;;6.17;5.57;;;;;;;13.33;35.39;99291.25;5073380;28;20504;-66
2021/05/04 00:09:35;;;;;;;5.30;4.23;;;;;;;13.29;35.52;99281.88;5062049;28;20453;-66
2021/05/04 00:12:01;;;;;;;4.67;4.23;;;;;;;13.08;36.09;99264.63;5068559;28;20503;-66
2021/05/04 00:14:28;;;;;;;5.27;4.40;;;;;;;13.27;35.54;99255.22;5082581;28;20452;-66
2021/05/04 00:16:54;;;;;;;4.80;3.70;;;;;;;13.11;35.70;99250.00;5079618;28;20480;-67
2021/05/04 00:19:21;;;;;;;4.23;3.70;;;;;;;13.07;35.88;99249.53;5082499;28;20482;-66
2021/05/04 00:21:47;;;;;;;4.87;4.13;;;;;;;13.05;35.58;99224.72;5077796;28;20488;-66
2021/05/04 00:24:13;;;;;;;4.97;4.17;;;;;;;13.10;35.76;99225.00;5061787;28;20853;-65
2021/05/04 00:26:40;;;;;;;5.03;4.17;;;;;;;13.25;35.43;99210.81;5064106;28;20469;-65
2021/05/04 00:29:06;;;;;;;5.20;3.80;;;;;;;13.27;35.25;99200.72;5082894;28;20428;-66
2021/05/04 00:31:32;;;;;;;5.03;4.63;;;;;;;13.09;35.62;99196.53;5080093;28;20484;-67
2021/05/04 00:33:58;;;;;;;6.07;3.87;;;;;;;13.27;35.09;99180.06;5081984;28;20965;-67
2021/05/04 00:36:26;;;;;;;5.77;3.73;;;;;;;13.32;34.99;99174.19;5079323;28;20475;-67
2021/05/04 00:38:52;;;;;;;4.67;4.03;;;;;;;13.27;35.35;99165.81;5062690;28;20460;-67
2021/05/04 00:41:18;;;;;;;4.40;3.63;;;;;;;13.58;35.23;99167.50;5061687;28;20993;-66
2021/05/04 00:43:44;;;;;;;4.67;4.23;;;;;;;13.03;35.67;99154.31;5062173;28;20468;-68
2021/05/04 00:46:10;;;;;;;4.20;3.80;;;;;;;13.21;35.56;99145.91;5062235;28;20480;-65
2021/05/04 00:48:36;;;;;;;6.40;3.70;;;;;;;13.13;35.46;99144.13;5061793;28;20500;-66
2021/05/04 00:51:04;;;;;;;3.50;3.20;;;;;;;13.47;35.29;99129.38;5071845;28;20471;-66
2021/05/04 00:53:31;;;;;;;4.20;3.50;;;;;;;13.55;35.08;99123.88;5082107;28;20473;-66
2021/05/04 00:55:58;;;;;;;3.90;3.50;;;;;;;13.23;35.54;99122.41;5081340;28;20574;-66
2021/05/04 00:58:25;;;;;;;4.27;3.87;;;;;;;13.24;35.42;99099.06;5081595;28;20494;-67
2021/05/04 01:00:51;;;;;;;3.67;3.27;;;;;;;13.31;35.44;99095.47;5069122;28;20483;-66
2021/05/04 01:03:18;;;;;;;3.73;3.07;;;;;;;13.40;35.22;99080.09;5061921;28;20449;-67
2021/05/04 01:05:44;;;;;;;3.63;3.33;;;;;;;13.47;35.17;99074.81;5071771;28;20980;-66
2021/05/04 01:08:10;;;;;;;4.17;3.63;;;;;;;13.48;34.95;99060.38;5080609;28;20440;-66
2021/05/04 01:10:37;;;;;;;4.50;3.30;;;;;;;13.19;35.56;99054.84;5069997;28;20468;-65
2021/05/04 01:13:04;;;;;;;3.97;3.47;;;;;;;13.66;34.55;99058.13;5064983;28;20471;-66
2021/05/04 01:15:30;;;;;;;3.60;3.13;;;;;;;13.70;34.68;99042.47;5080900;28;20487;-65
2021/05/04 01:17:56;;;;;;;3.00;2.70;;;;;;;13.65;34.67;99036.81;5080624;28;20543;-66
2021/05/04 01:20:23;;;;;;;4.73;3.70;;;;;;;13.40;35.10;99021.03;5060790;28;20507;-65
2021/05/04 01:22:51;;;;;;;4.00;3.40;;;;;;;13.48;35.13;98999.44;5061448;28;20563;-66
2021/05/04 01:25:19;;;;;;;4.10;3.60;;;;;;;13.39;35.51;99014.03;5060960;28;20891;-66
2021/05/04 01:27:45;;;;;;;6.43;4.10;;;;;;;13.26;34.92;98987.00;5061827;28;20451;-66
2021/05/04 01:30:12;;;;;;;4.20;3.80;;;;;;;13.74;34.56;98985.47;5080240;28;20791;-67
2021/05/04 01:32:38;;;;;;;3.50;3.20;;;;;;;13.54;34.83;98969.16;5080960;28;21014;-67
2021/05/04 01:35:05;;;;;;;9.30;3.30;;;;;;;13.46;34.65;98966.59;5079215;28;20448;-66
2021/05/04 01:37:31;;;;;;;4.50;3.70;;;;;;;13.61;34.69;98946.91;5081654;28;20448;-66
2021/05/04 01:39:58;;;;;;;4.40;3.57;;;;;;;13.62;34.77;98945.88;5064472;28;20520;-66
2021/05/04 01:42:25;;;;;;;4.60;3.30;;;;;;;13.73;34.55;98950.72;5061157;28;20488;-65
2021/05/04 01:44:51;;;;;;;4.63;3.40;;;;;;;13.84;34.26;98927.91;5075969;28;20522;-66
2021/05/04 01:47:17;;;;;;;3.73;3.40;;;;;;;13.77;34.64;98919.78;5081253;28;20895;-66
2021/05/04 01:49:44;;;;;;;3.40;3.03;;;;;;;14.09;33.65;98904.09;5080654;28;20519;-66
2021/05/04 01:52:10;;;;;;;4.43;2.93;;;;;;;13.93;34.25;98892.63;5080982;28;20468;-66
2021/05/04 01:54:37;;;;;;;4.90;2.97;;;;;;;13.60;34.57;98895.06;5069160;28;20456;-66
2021/05/04 01:57:05;;;;;;;5.60;3.20;;;;;;;13.88;34.33;98883.50;5060580;28;20483;-66
2021/05/04 01:59:31;;;;;;;4.17;2.80;;;;;;;13.94;33.80;98880.03;5071292;28;20460;-67
2021/05/04 02:01:58;;;;;;;6.80;3.53;;;;;;;13.78;34.12;98883.00;5074811;28;20473;-65
2021/05/04 02:04:25;;;;;;;4.93;3.10;;;;;;;13.91;34.16;98873.19;5071853;28;20459;-66
2021/05/04 02:06:51;;;;;;;3.60;2.93;;;;;;;14.04;33.64;98860.88;5076063;28;20491;-67
2021/05/04 02:09:17;;;;;;;3.00;2.67;;;;;;;14.17;33.33;98846.69;5060106;28;20444;-66
2021/05/04 02:11:44;;;;;;;6.33;2.70;;;;;;;14.17;33.63;98841.31;5063286;28;20483;-66
2021/05/04 02:14:11;;;;;;;4.07;3.20;;;;;;;14.12;33.65;98833.84;5080917;28;20459;-66
2021/05/04 02:16:37;;;;;;;5.53;3.33;;;;;;;14.04;33.90;98812.50;5066144;28;20476;-67
2021/05/04 02:19:04;;;;;;;4.47;2.97;;;;;;;14.00;33.90;98811.25;5060691;28;20504;-66
2021/05/04 02:21:30;;;;;;;3.53;2.90;;;;;;;14.32;33.41;98798.97;5061447;28;20551;-66
2021/05/04 02:23:56;;;;;;;5.70;2.70;;;;;;;13.98;33.95;98789.13;5064947;28;20452;-66
2021/05/04 02:26:23;;;;;;;5.70;2.47;;;;;;;13.99;33.82;98769.25;5064810;28;20496;-66
2021/05/04 02:28:49;;;;;;;3.47;2.80;;;;;;;14.44;33.25;98777.72;5064859;28;20460;-65
2021/05/04 02:31:16;;;;;;;5.43;2.50;;;;;;;13.93;33.92;98774.41;5077016;28;20464;-65
2021/05/04 02:33:43;;;;;;;3.60;2.80;;;;;;;14.17;33.86;98760.69;5084317;28;20456;-65
2021/05/04 02:36:10;;;;;;;4.70;3.13;;;;;;;14.17;33.46;98753.44;5071446;28;20503;-66
2021/05/04 02:38:37;;;;;;;4.00;2.90;;;;;;;14.09;33.83;98767.88;5064649;28;20437;-66
2021/05/04 02:41:04;;;;;;;3.43;2.60;;;;;;;14.38;33.35;98738.22;5064628;28;20496;-65
2021/05/04 02:43:31;;;;;;;3.00;2.70;;;;;;;14.20;33.42;98738.75;5066647;28;20480;-65
2021/05/04 02:45:57;;;;;;;4.13;2.63;;;;;;;14.04;33.85;98746.13;5083909;28;20476;-66
2021/05/04 02:48:24;;;;;;;4.70;2.93;;;;;;;14.21;33.46;98738.56;5083419;28;20456;-66
2021/05/04 02:50:51;;;;;;;3.97;2.03;;;;;;;14.10;33.60;98737.28;5063513;28;20460;-66
2021/05/04 02:53:17;;;;;;;3.50;2.57;;;;;;;14.41;33.21;98735.94;5064386;28;20457;-65
2021/05/04 02:55:43;;;;;;;7.20;2.73;;;;;;;14.36;33.99;98726.84;5064747;28;21049;-65
2021/05/04 02:58:10;;;;;;;3.73;2.37;;;;;;;14.39;33.64;98729.94;5065910;28;20455;-65
2021/05/04 03:00:36;;;;;;;2.50;2.07;;;;;;;14.18;34.04;98712.06;5083375;28;20468;-66
2021/05/04 03:03:03;;;;;;;5.40;2.57;;;;;;;14.16;35.44;98708.75;5083901;28;20969;-66
2021/05/04 03:05:30;;;;;;;9.37;2.30;;;;;;;14.14;35.52;98710.84;5063608;28;20480;-66
2021/05/04 03:07:56;;;;;;;6.33;1.73;;;;;;;13.58;37.00;98714.50;5065617;28;20441;-66
2021/05/04 03:10:23;;;;;;;9.43;2.30;;;;;;;13.50;37.15;98715.47;5062502;28;20459;-66
2021/05/04 03:12:49;;;;;;;4.17;1.80;;;;;;;13.66;36.53;98692.88;5071301;28;20465;-67
2021/05/04 03:15:16;;;;;;;3.13;2.27;;;;;;;13.92;36.65;98694.84;5063555;28;20445;-67
2021/05/04 03:17:42;;;;;;;9.90;2.40;;;;;;;13.86;35.67;98684.06;5077165;28;20474;-67
2021/05/04 03:20:09;;;;;;;17.40;2.40;;;;;;;13.53;35.83;98660.56;5055231;28;20477;-67
2021/05/04 03:22:36;;;;;;;2.63;1.60;;;;;;;13.91;34.99;98674.38;5043597;28;20513;-66
2021/05/04 03:25:03;;;;;;;7.83;2.40;;;;;;;14.27;34.57;98683.19;5050627;28;20500;-66
2021/05/04 03:27:29;;;;;;;11.67;2.30;;;;;;;14.20;34.68;98676.94;5063670;28;20484;-67
2021/05/04 03:29:55;;;;;;;4.00;2.10;;;;;;;14.01;36.46;98673.16;5062802;28;20461;-67
2021/05/04 03:32:22;;;;;;;3.03;2.30;;;;;;;13.87;37.49;98681.19;5062894;28;20473;-67
2021/05/04 03:34:48;;;;;;;4.13;1.90;;;;;;;13.31;38.77;98671.38;5047021;28;20476;-67
2021/05/04 03:37:14;;;;;;;5.33;1.70;;;;;;;13.60;38.91;98679.41;5043168;28;20860;-66
2021/05/04 03:39:41;;;;;;;5.33;1.70;;;;;;;13.56;38.53;98660.19;5043325;28;20445;-66
2021/05/04 03:42:08;;;;;;;4.57;2.13;;;;;;;13.62;39.09;98670.13;5043115;28;20505;-65
2021/05/04 03:44:34;;;;;;;4.63;2.00;;;;;;;13.62;39.06;98664.75;5043414;28;20465;-66
2021/05/04 03:47:00;;;;;;;5.30;1.97;;;;;;;13.60;39.09;98672.16;5043204;28;20473;-65
2021/05/04 03:49:26;;;;;;;2.70;2.27;;;;;;;13.77;38.81;98680.72;5058990;28;20452;-66
2021/05/04 03:51:52;;;;;;;2.70;2.00;;;;;;;13.39;39.85;98662.34;5062694;28;20476;-66
2021/05/04 03:54:18;;;;;;;1.90;1.60;;;;;;;13.13;40.78;98679.91;5047981;28;20504;-67
2021/05/04 03:56:45;;;;;;;4.07;2.27;;;;;;;12.79;44.38;98675.31;5042469;28;20484;-67
2021/05/04 03:59:12;;;;;;;5.07;2.43;;;;;;;13.03;44.20;98695.53;5044524;28;20666;-68
2021/05/04 04:01:38;;;;;;;3.23;1.87;;;;;;;12.81;46.86;98681.31;5046452;28;20476;-66
2021/05/04 04:04:04;;;;;;;4.93;2.30;;;;;;;12.72;46.99;98702.06;5062640;28;20485;-67
2021/05/04 04:06:30;;;;;;;5.53;2.30;;;;;;;12.35;48.90;98698.63;5059556;28;20531;-67
2021/05/04 04:08:56;;;;;;;4.57;2.60;;;;;;;11.99;51.71;98701.31;5042037;28;20434;-68
2021/05/04 04:11:22;;;;;;;4.13;2.60;;;;;;;11.65;51.84;98690.16;5042210;28;20473;-69
2021/05/04 04:13:49;;;;;;;8.13;3.20;;;;;;;11.44;53.52;98703.44;5062381;28;20460;-68
2021/05/04 04:16:16;;;;;;;2.43;2.13;;;;;;;11.70;52.84;98700.31;5058327;28;20559;-67
2021/05/04 04:18:42;;;;;;;3.77;2.87;;;;;;;11.76;54.00;98696.06;5051171;28;20511;-67
2021/05/04 04:21:08;;;;;;;3.00;2.73;;;;;;;11.98;53.59;98697.81;5059627;28;20480;-66
2021/05/04 04:23:34;;;;;;;5.17;3.37;;;;;;;11.93;53.66;98696.72;5071383;28;20492;-67
2021/05/04 04:26:00;;;;;;;3.90;2.70;;;;;;;11.73;55.55;98715.16;5059332;28;20905;-69
2021/05/04 04:28:26;;;;;;;3.47;2.67;;;;;;;10.95;57.95;98696.75;5061842;28;20475;-69
2021/05/04 04:30:53;;;;;;;3.97;2.87;;;;;;;10.70;60.71;98704.16;5049059;28;20466;-69
2021/05/04 04:33:23;;;;;;;3.30;3.00;;;;;;;10.56;61.56;98697.75;5040239;28;20900;-68
2021/05/04 04:35:50;;;;;;;4.53;3.33;;;;;;;10.66;62.13;98697.50;5047281;28;20470;-68
2021/05/04 04:38:16;;;;;;;5.73;3.60;;;;;;;10.75;62.59;98699.09;5041258;28;20792;-68
2021/05/04 04:40:43;;;;;;;4.20;3.67;;;;;;;10.29;62.57;98683.03;5048902;28;20483;-67
2021/05/04 04:43:09;;;;;;;4.23;3.37;;;;;;;10.59;63.94;98691.19;5061327;28;20449;-69
2021/05/04 04:45:35;;;;;;;4.60;3.47;;;;;;;10.82;62.86;98688.53;5058097;28;20527;-69
2021/05/04 04:48:02;;;;;;;3.83;3.53;;;;;;;10.60;62.86;98690.22;5058479;28;20449;-68
2021/05/04 04:50:28;;;;;;;4.57;3.30;;;;;;;10.17;63.88;98679.94;5060738;28;20464;-69
2021/05/04 04:52:55;;;;;;;4.10;3.70;;;;;;;10.37;65.23;98691.03;5043502;28;20446;-69
2021/05/04 04:55:21;;;;;;;6.83;4.00;;;;;;;10.17;65.84;98683.47;5050581;28;21370;-69
2021/05/04 04:57:47;;;;;;;5.03;4.53;;;;;;;10.40;65.77;98673.81;5041233;28;20430;-69
2021/05/04 05:00:14;;;;;;;6.00;4.67;;;;;;;10.08;65.83;98662.31;5055420;28;20449;-66
2021/05/04 05:02:40;;;;;;;10.07;5.03;;;;;;;9.94;67.75;98678.06;5048927;28;20446;-69
2021/05/04 05:05:08;;;;;;;6.30;4.80;;;;;;;10.40;67.05;98658.63;5049405;28;20520;-69
2021/05/04 05:07:34;;;;;;;8.53;5.23;;;;;;;10.18;67.05;98647.72;5061090;28;20429;-68
2021/05/04 05:10:01;;;;;;;5.30;4.80;;;;;;;10.36;66.90;98641.28;5054129;28;20467;-67
2021/05/04 05:12:27;;;;;;;5.40;4.10;;;;;;;10.04;68.02;98627.13;5069921;28;20472;-69
2021/05/04 05:14:53;;;;;;;5.50;4.00;;;;;;;10.10;66.88;98617.56;5071850;28;20494;-69
2021/05/04 05:17:20;;;;;;;4.20;3.70;;;;;;;10.31;66.79;98622.25;5059226;28;20473;-67
2021/05/04 05:19:46;;;;;;;4.70;3.70;;;;;;;9.89;65.78;98612.88;5043504;28;20990;-68
2021/05/04 05:22:13;;;;;;;6.40;2.93;;;;;;;10.05;66.37;98617.28;5051236;28;20544;-67
2021/05/04 05:24:40;;;;;;;6.73;4.10;;;;;;;10.60;65.28;98610.03;5040484;28;20477;-68
2021/05/04 05:27:06;;;;;;;5.03;3.17;;;;;;;10.13;65.36;98609.22;5059212;28;20477;-68
2021/05/04 05:29:34;;;;;;;4.53;3.43;;;;;;;10.21;65.63;98600.28;5060293;28;20459;-67
2021/05/04 05:32:00;;;;;;;4.23;3.50;;;;;;;10.05;64.93;98593.25;5059948;28;20568;-67
2021/05/04 05:34:26;;;;;;;5.43;3.00;;;;;;;10.17;65.09;98590.00;5057927;28;20460;-68
2021/05/04 05:36:52;;;;;;;4.30;3.27;;;;;;;9.80;64.65;98580.88;5059112;28;20527;-67
2021/05/04 05:39:19;;;;;;;4.60;2.93;;;;;;;10.25;63.66;98575.72;5042979;28;20445;-67
2021/05/04 05:41:46;;;;;;;4.80;3.23;;;;;;;10.35;63.43;98568.34;5038643;28;20512;-68
2021/05/04 05:44:13;;;;;;;4.57;3.50;;;;;;;10.17;63.84;98562.44;5042305;28;20788;-67
2021/05/04 05:46:39;;;;;;;3.50;2.90;;;;;;;10.24;63.82;98589.25;5058091;28;20484;-67
2021/05/04 05:49:05;;;;;;;3.90;3.50;;;;;;;10.44;63.53;98568.25;5056463;28;20509;-67
2021/05/04 05:51:32;;;;;;;3.03;2.73;;;;;;;10.22;63.43;98549.38;5050343;28;20988;-67
2021/05/04 05:53:58;;;;;;;2.83;2.50;;;;;;;10.25;62.75;98548.19;5051668;28;20478;-69
2021/05/04 05:56:25;;;;;;;3.10;2.63;;;;;;;10.46;62.54;98555.56;5060570;28;20483;-69
2021/05/04 05:58:51;;;;;;;3.73;2.60;;;;;;;10.38;62.90;98561.81;5044399;28;20484;-70
2021/05/04 06:01:17;;;;;;;2.90;2.60;;;;;;;10.28;62.19;98537.97;5045180;28;20500;-68
2021/05/04 06:03:44;;;;;;;3.50;2.47;;;;;;;10.59;61.75;98538.88;5058555;28;20817;-67
2021/05/04 06:06:10;;;;;;;3.53;2.40;;;;;;;11.11;60.04;98536.13;5050398;28;20484;-66
2021/05/04 06:08:36;;;;;;;4.90;3.03;;;;;;;10.61;62.02;98537.69;5055415;28;20503;-65
2021/05/04 06:11:03;;;;;;;2.53;2.20;;;;;;;10.74;61.62;98543.25;5043677;28;20503;-65
2021/05/04 06:13:30;;;;;;;2.73;2.43;;;;;;;10.54;61.32;98534.09;5051103;28;20487;-64
2021/05/04 06:15:56;;;;;;;3.43;2.43;;;;;;;10.91;60.35;98529.69;5062820;28;20472;-64
2021/05/04 06:18:22;;;;;;;3.70;3.10;;;;;;;10.82;61.28;98536.16;5060244;28;20456;-65
2021/05/04 06:20:48;;;;;;;5.63;2.50;;;;;;;10.67;60.94;98536.13;5051717;28;20476;-65
2021/05/04 06:23:14;;;;;;;3.33;2.47;;;;;;;10.54;60.70;98524.25;5043593;28;21174;-65
2021/05/04 06:25:41;;;;;;;3.20;2.23;;;;;;;10.79;60.17;98509.78;5044327;28;20480;-64
2021/05/04 06:28:09;;;;;;;3.87;2.00;;;;;;;10.68;59.50;98535.94;5055394;28;20438;-64
2021/05/04 06:30:37;;;;;;;2.57;2.37;;;;;;;11.07;58.49;98489.34;5063397;28;20982;-66
2021/05/04 06:33:05;;;;;;;3.03;2.40;;;;;;;10.86;58.50;98513.38;5051679;28;20566;-63
2021/05/04 06:35:33;;;;;;;3.10;2.27;;;;;;;11.34;57.65;98515.63;5063223;28;20476;-63
2021/05/04 06:38:00;;;;;;;2.67;2.20;;;;;;;11.56;57.20;98513.78;5063280;28;20495;-64
2021/05/04 06:40:26;;;;;;;7.70;2.47;;;;;;;10.88;58.56;98500.63;5062538;28;20923;-68
2021/05/04 06:42:52;;;;;;;8.10;2.03;;;;;;;10.93;58.92;98500.91;5058327;28;20659;-66
2021/05/04 06:45:18;;;;;;;2.10;1.90;;;;;;;10.89;59.41;98486.28;5061135;28;20492;-65
2021/05/04 06:47:46;;;;;;;8.63;2.70;;;;;;;11.23;58.24;98488.34;5047163;28;20457;-65
2021/05/04 06:50:12;;;;;;;2.20;2.00;;;;;;;10.94;58.21;98486.53;5048302;28;20446;-63
2021/05/04 06:52:39;;;;;;;2.07;1.90;;;;;;;11.15;57.59;98496.47;5047147;28;20467;-66
2021/05/04 06:55:06;;;;;;;1.70;1.50;;;;;;;11.42;58.11;98491.41;5059578;28;20514;-65
2021/05/04 06:57:32;;;;;;;1.90;1.63;;;;;;;10.92;58.89;98484.06;5073348;28;20464;-64
2021/05/04 06:59:58;;;;;;;2.43;1.77;;;;;;;10.88;59.40;98488.13;5076214;28;20441;-64
2021/05/04 07:02:25;;;;;;;3.03;1.97;;;;;;;10.92;60.54;98480.56;5041445;28;20544;-68
2021/05/04 07:04:52;;;;;;;2.90;1.90;;;;;;;10.99;60.11;98470.78;5060115;28;20457;-70
2021/05/04 07:07:19;;;;;;;2.83;2.07;;;;;;;10.97;60.54;98474.63;5056821;28;20476;-67
2021/05/04 07:09:45;;;;;;;2.27;1.80;;;;;;;10.90;60.87;98466.53;5061793;28;20450;-66
2021/05/04 07:12:11;;;;;;;2.87;2.53;;;;;;;11.04;61.12;98472.88;5057089;28;20497;-67
2021/05/04 07:14:39;;;;;;;4.00;2.17;;;;;;;11.09;61.66;98478.47;5044680;28;20500;-67
2021/05/04 07:17:05;;;;;;;3.60;2.40;;;;;;;11.04;61.49;98472.88;5059931;28;20473;-67
2021/05/04 07:19:31;;;;;;;2.77;2.10;;;;;;;10.73;61.72;98461.38;5060575;28;20460;-69
2021/05/04 07:21:59;;;;;;;2.10;1.90;;;;;;;10.95;61.26;98465.97;5064613;28;20754;-67
2021/05/04 07:24:25;;;;;;;7.30;2.07;;;;;;;11.36;60.98;98476.94;5061413;28;20463;-68
2021/05/04 07:26:52;;;;;;;2.73;2.43;;;;;;;10.92;62.72;98472.53;5061603;28;20481;-69
2021/05/04 07:29:18;;;;;;;1.93;1.70;;;;;;;11.03;61.89;98466.69;5059279;28;20943;-68
2021/05/04 07:31:44;;;;;;;2.97;2.33;;;;;;;11.29;61.52;98463.50;5057703;28;20473;-70
2021/05/04 07:34:11;;;;;;;2.57;2.10;;;;;;;11.26;61.50;98442.47;5060940;28;20449;-70
2021/05/04 07:36:37;;;;;;;18.43;3.10;;;;;;;12.14;58.92;98426.19;5060217;28;20487;-70
2021/05/04 07:39:05;;;;;;;3.90;2.03;;;;;;;12.10;58.77;98419.56;5060413;28;21059;-66
2021/05/04 07:41:31;;;;;;;3.27;2.07;;;;;;;12.17;58.96;98428.47;5055993;28;20481;-68
2021/05/04 07:43:58;;;;;;;3.33;2.03;;;;;;;12.10;57.33;98414.22;5050967;28;20483;-69
2021/05/04 07:46:24;;;;;;;2.23;1.80;;;;;;;13.43;54.48;98413.97;5052681;28;20553;-69
2021/05/04 07:48:50;;;;;;;3.40;2.10;;;;;;;13.06;53.76;98405.38;5042634;28;20462;-66
2021/05/04 07:51:17;;;;;;;3.50;1.70;;;;;;;12.70;54.87;98408.34;5072213;28;20476;-69
2021/05/04 07:53:43;;;;;;;3.00;1.60;;;;;;;12.39;55.24;98402.44;5054253;28;20450;-69
2021/05/04 07:56:10;;;;;;;1.80;1.70;;;;;;;12.76;54.21;98402.19;5053634;28;20476;-66
2021/05/04 07:58:36;;;;;;;2.63;1.90;;;;;;;13.30;53.51;98397.81;5055480;28;20453;-66
2021/05/04 08:01:03;;;;;;;2.60;1.87;;;;;;;12.63;54.60;98401.09;5053057;28;20497;-65
2021/05/04 08:03:30;;;;;;;6.70;1.97;;;;;;;12.53;54.06;98389.91;5053224;28;20460;-66
2021/05/04 08:05:56;;;;;;;9.40;3.30;;;;;;;12.26;54.46;98401.53;5053164;28;20552;-66
2021/05/04 08:08:23;;;;;;;2.07;1.63;;;;;;;12.41;54.03;98395.03;5051150;28;20499;-68
2021/05/04 08:10:49;;;;;;;2.53;2.30;;;;;;;12.57;54.18;98396.53;5052370;28;20481;-71
2021/05/04 08:13:19;;;;;;;2.43;1.90;;;;;;;12.16;54.86;98404.56;5058773;28;20536;-67
2021/05/04 08:15:45;;;;;;;3.33;2.90;;;;;;;12.40;54.07;98379.97;5058569;28;20475;-67
2021/05/04 08:18:14;;;;;;;1.73;1.37;;;;;;;12.39;53.47;98436.44;5055589;28;20966;-64
2021/05/04 08:20:47;;;;;;;3.00;1.43;;;;;;;12.50;53.98;98406.41;5052552;28;20561;-68
2021/05/04 08:23:14;;;;;;;1.83;1.43;;;;;;;12.81;52.96;98383.63;5059303;28;20515;-66
2021/05/04 08:25:41;;;;;;;1.40;1.30;;;;;;;12.99;52.47;98380.41;5058507;28;20503;-67
2021/05/04 08:28:07;;;;;;;2.37;1.90;;;;;;;12.39;53.61;98356.88;5057592;28;20781;-66
2021/05/04 08:30:35;;;;;;;2.90;2.23;;;;;;;12.63;52.76;98398.41;5058963;28;20469;-68
2021/05/04 08:33:01;;;;;;;2.87;1.50;;;;;;;12.51;53.14;98393.81;5043091;28;20440;-67
2021/05/04 08:35:27;;;;;;;3.20;1.77;;;;;;;12.48;53.59;98415.66;5059180;28;20469;-67
2021/05/04 08:37:55;;;;;;;5.50;2.40;;;;;;;12.51;53.71;98415.28;5059646;28;20433;-68
2021/05/04 08:40:21;;;;;;;4.43;1.40;;;;;;;12.05;54.04;98395.22;5056191;28;20520;-69
2021/05/04 08:42:48;;;;;;;1.33;1.23;;;;;;;12.04;54.19;98399.72;5065875;28;20475;-69
2021/05/04 08:45:15;;;;;;;2.00;1.60;;;;;;;12.60;53.37;98379.22;5058547;28;20543;-67
2021/05/04 08:47:44;;;;;;;2.83;1.47;;;;;;;12.53;53.52;98395.25;5060699;28;20448;-67
2021/05/04 08:50:14;;;;;;;1.63;1.53;;;;;;;12.39;54.19;98396.22;5071130;28;20543;-66
2021/05/04 08:52:40;;;;;;;1.70;1.43;;;;;;;12.49;54.09;98390.53;5052924;28;20448;-65
2021/05/04 08:55:08;;;;;;;5.83;1.57;;;;;;;12.51;53.28;98378.56;5057527;28;20453;-66
2021/05/04 08:57:36;;;;;;;1.63;1.30;;;;;;;12.29;54.17;98393.94;5050924;28;20436;-65
2021/05/04 09:00:05;;;;;;;3.80;1.40;;;;;;;12.84;53.18;98382.41;5050608;28;20459;-69
2021/05/04 09:02:35;;;;;;;1.30;1.20;;;;;;;13.18;52.40;98384.16;5086097;28;20925;-69
2021/05/04 09:05:15;;;;;;;4.40;1.60;;;;;;;13.18;53.08;98400.25;5085169;28;20456;-69
2021/05/04 09:07:42;;;;;;;2.67;1.57;;;;;;;13.15;52.93;98366.59;5063567;28;20515;-68
2021/05/04 09:10:22;;;;;;;1.63;1.53;;;;;;;13.08;52.51;98341.63;5059926;28;20452;-68
2021/05/04 09:12:53;;;;;;;1.67;1.50;;;;;;;12.85;53.36;98384.91;5071905;28;20443;-70
2021/05/04 09:15:58;;;;;;;3.30;1.50;;;;;;;12.79;53.12;98375.81;5079073;28;20524;-69
2021/05/04 09:21:36;;;;;;;1.90;1.30;;;;;;;13.10;52.86;98341.41;5049514;28;20494;-68
2021/05/04 09:24:20;;;;;;;2.50;1.30;;;;;;;12.92;53.17;98369.66;5082030;28;20448;-68
2021/05/04 09:26:47;;;;;;;2.33;1.30;;;;;;;12.38;55.32;98365.94;5086971;28;20504;-70
2021/05/04 09:29:13;;;;;;;1.83;1.43;;;;;;;12.74;54.48;98370.22;5064675;28;20479;-67
2021/05/04 09:31:41;;;;;;;1.43;1.30;;;;;;;12.81;54.23;98383.63;5087228;28;20467;-70
2021/05/04 09:34:09;;;;;;;8.10;1.83;;;;;;;13.32;53.92;98352.84;5091811;28;20451;-65
2021/05/04 09:36:47;;;;;;;1.47;1.37;;;;;;;12.63;55.58;98358.19;5093208;28;20471;-65
2021/05/04 09:39:26;;;;;;;1.40;1.20;;;;;;;12.20;57.65;98358.44;5079667;28;20503;-64
2021/05/04 09:41:52;;;;;;;4.13;1.50;;;;;;;12.65;56.64;98343.78;5099354;28;20462;-66
2021/05/04 09:44:37;;;;;;;2.00;1.10;;;;;;;12.49;56.20;98377.94;5093678;28;20983;-65
2021/05/04 09:47:03;;;;;;;3.80;1.40;;;;;;;12.88;57.44;98364.88;5073323;28;20471;-65
2021/05/04 09:49:31;;;;;;;2.00;1.17;;;;;;;12.61;57.85;98341.50;5091649;28;20592;-65
2021/05/04 09:52:24;;;;;;;2.80;1.83;;;;;;;12.17;58.29;98350.78;5076463;28;20550;-68
2021/05/04 09:54:50;;;;;;;4.83;1.67;;;;;;;12.87;56.40;98328.38;5090033;28;20451;-69
2021/05/04 09:57:36;;;;;;;1.77;1.37;;;;;;;12.94;55.72;98321.16;5089853;28;20474;-67
2021/05/04 10:00:05;;;;;;;1.50;1.40;;;;;;;13.03;55.16;98303.03;5074998;28;20436;-66
2021/05/04 10:02:32;;;;;;;3.77;1.47;;;;;;;12.82;54.33;98328.97;5074992;28;20456;-66
2021/05/04 10:05:00;;;;;;;1.87;1.57;;;;;;;13.14;54.01;98319.34;5078327;28;20462;-66
2021/05/04 10:07:28;;;;;;;3.57;1.77;;;;;;;12.99;54.63;98316.03;5086311;28;20482;-66
2021/05/04 10:09:54;;;;;;;2.87;2.40;;;;;;;13.05;54.42;98312.50;5079256;28;20452;-66
2021/05/04 10:12:21;;;;;;;1.60;1.40;;;;;;;13.05;54.49;98298.28;5081484;28;20617;-65
2021/05/04 10:14:49;;;;;;;3.03;2.13;;;;;;;12.95;54.53;98275.38;5079522;28;20448;-68
2021/05/04 10:17:16;;;;;;;4.67;1.60;;;;;;;13.17;53.49;98272.50;5084754;28;20458;-67
2021/05/04 10:19:43;;;;;;;4.20;2.37;;;;;;;13.41;52.66;98268.38;5081369;28;20480;-68
2021/05/04 10:22:10;;;;;;;5.67;1.60;;;;;;;13.70;52.88;98260.94;5079476;28;20491;-68
2021/05/04 10:24:39;;;;;;;3.70;1.20;;;;;;;13.82;51.92;98280.72;5074026;28;20456;-67
2021/05/04 10:27:06;;;;;;;3.30;1.57;;;;;;;13.56;52.54;98266.31;5074964;28;20513;-69
2021/05/04 10:29:32;;;;;;;1.63;1.13;;;;;;;13.89;51.32;98280.72;5083425;28;20917;-67
2021/05/04 10:31:59;;;;;;;5.10;1.07;;;;;;;13.89;51.48;98281.53;5078576;28;20476;-64
2021/05/04 10:34:27;;;;;;;1.57;1.30;;;;;;;13.86;52.08;98306.13;5080632;28;20558;-64
2021/05/04 10:36:54;;;;;;;2.13;1.30;;;;;;;13.68;51.91;98301.41;5079393;28;20464;-64
2021/05/04 10:39:38;;;;;;;1.87;1.63;;;;;;;13.50;52.29;98323.50;5085843;28;20462;-64
2021/05/04 10:42:06;;;;;;;3.70;1.37;;;;;;;13.18;53.43;98325.94;5098104;28;20508;-63
2021/05/04 10:45:09;;;;;;;1.83;1.40;;;;;;;13.18;57.03;98328.63;5101523;28;21233;-65
2021/05/04 10:47:50;;;;;;;3.20;1.20;;;;;;;13.41;58.51;98326.63;5079628;28;20483;-65
2021/05/04 10:50:21;;;;;;;1.47;1.30;;;;;;;14.45;54.61;98316.91;5081463;28;20470;-64
2021/05/04 10:53:03;;;;;;;2.03;1.40;;;;;;;15.13;52.08;98315.53;5082376;28;20523;-65
2021/05/04 10:56:07;;;;;;;1.30;1.10;;;;;;;15.21;52.63;98302.66;5087891;28;20474;-64
2021/05/04 10:58:47;;;;;;;2.50;1.27;;;;;;;14.10;54.30;98326.13;5091053;28;20455;-64
2021/05/04 11:01:18;;;;;;;2.50;1.60;;;;;;;14.21;54.16;98319.25;5085768;28;20467;-65
2021/05/04 11:03:49;;;;;;;1.67;1.57;;;;;;;13.78;55.67;98308.22;5088630;28;20502;-64
2021/05/04 11:06:57;;;;;;;2.13;1.33;;;;;;;14.15;54.33;98287.03;5087998;28;20486;-65
2021/05/04 11:09:23;;;;;;;5.87;1.70;;;;;;;13.89;54.91;98286.91;5078679;28;20463;-65
2021/05/04 11:11:51;;;;;;;2.30;1.37;;;;;;;13.90;53.93;98279.66;5080395;28;20480;-64
2021/05/04 11:14:36;;;;;;;2.93;1.53;;;;;;;14.12;53.54;98275.69;5081363;28;20475;-65
2021/05/04 11:17:22;;;;;;;5.70;2.07;;;;;;;13.85;53.85;98245.41;5081761;28;20467;-64
2021/05/04 11:19:49;;;;;;;2.60;1.70;;;;;;;14.30;53.32;98247.28;5080542;28;20467;-64
2021/05/04 11:22:20;;;;;;;2.53;1.97;;;;;;;13.47;54.51;98216.56;5081453;28;20495;-65
2021/05/04 11:24:48;;;;;;;2.17;1.90;;;;;;;13.61;55.47;98254.97;5082757;28;20511;-65
2021/05/04 11:27:27;;;;;;;2.90;1.83;;;;;;;14.27;54.28;98250.41;5078212;28;20476;-67
2021/05/04 11:29:55;;;;;;;2.10;1.90;;;;;;;13.85;56.49;98247.25;5080403;28;20451;-64
2021/05/04 11:32:23;;;;;;;3.27;2.57;;;;;;;13.33;59.18;98264.06;5083580;28;20488;-66
2021/05/04 11:34:58;;;;;;;2.50;1.90;;;;;;;13.86;59.34;98290.00;5077114;28;20452;-63
2021/05/04 11:37:37;;;;;;;3.23;2.53;;;;;;;13.09;62.25;98300.34;5079432;28;20582;-64
2021/05/04 11:40:23;;;;;;;8.07;2.93;;;;;;;12.44;66.88;98305.34;5079587;28;20835;-66
2021/05/04 11:42:52;;;;;;;6.40;2.80;;;;;;;12.46;67.82;98310.50;5078682;28;20451;-66